Time;durP1;ratioP1;P1;durP2;ratioP2;P2;SDS_P1;SDS_P2;PMS_P1;PMS_P2;Temp;Humidity;BMP_temperature;BMP_pressure;BME280_temperature;BME280_humidity;BME280_pressure;Samples;Min_cycle;Max_cycle;Signal;HPM_P1;HPM_P2
2022/04/28 05:00:27;;;;;;;11.47;10.47;;;8.40;97.20;;;;;;1714809;28;20190;-71
2022/04/28 05:01:17;;;;;;;12.13;11.02;;;8.40;97.20;;;;;;1714701;28;20626;-72
2022/04/28 05:02:09;;;;;;;12.13;11.03;;;8.40;97.20;;;;;;1715734;28;20198;-72
2022/04/28 05:03:00;;;;;;;11.93;10.80;;;8.40;97.20;;;;;;1714712;28;20205;-72
2022/04/28 05:03:52;;;;;;;12.40;11.40;;;8.40;97.20;;;;;;1717711;28;20266;-72
2022/04/28 05:04:42;;;;;;;12.80;11.68;;;8.40;97.20;;;;;;1721266;28;20222;-72
2022/04/28 05:05:34;;;;;;;13.00;11.80;;;8.50;97.20;;;;;;1721367;28;20233;-72
2022/04/28 05:06:25;;;;;;;11.98;10.88;;;8.50;97.20;;;;;;1721425;28;20939;-71
2022/04/28 05:07:17;;;;;;;12.80;11.70;;;8.50;97.20;;;;;;1721428;28;20197;-72
2022/04/28 05:08:08;;;;;;;11.50;10.60;;;8.60;97.20;;;;;;1721097;28;20317;-72
2022/04/28 05:09:00;;;;;;;11.70;10.60;;;8.60;97.20;;;;;;1721361;28;20692;-71
2022/04/28 05:09:50;;;;;;;12.63;11.32;;;8.60;97.20;;;;;;1721281;28;20463;-71
2022/04/28 05:10:42;;;;;;;11.80;10.70;;;8.60;97.20;;;;;;1721348;28;20197;-71
2022/04/28 05:11:33;;;;;;;12.43;11.32;;;8.60;97.20;;;;;;1721370;28;20205;-72
2022/04/28 05:12:24;;;;;;;12.50;11.30;;;8.70;97.20;;;;;;1721498;28;20201;-71
2022/04/28 05:13:15;;;;;;;12.80;11.32;;;8.70;97.20;;;;;;1721370;28;20205;-72
2022/04/28 05:14:07;;;;;;;13.20;11.90;;;8.70;97.20;;;;;;1721301;28;20198;-72
2022/04/28 05:14:57;;;;;;;13.98;12.77;;;8.70;97.20;;;;;;1721103;28;20241;-72
2022/04/28 05:15:51;;;;;;;12.83;11.50;;;8.70;97.20;;;;;;1721319;28;20691;-71
2022/04/28 05:16:41;;;;;;;12.73;11.63;;;8.80;97.20;;;;;;1714730;28;20198;-72
2022/04/28 05:17:33;;;;;;;14.67;12.07;;;8.80;97.20;;;;;;1714664;28;20201;-71
2022/04/28 05:18:26;;;;;;;13.05;11.85;;;8.80;97.20;;;;;;1714280;28;20236;-71
2022/04/28 05:19:18;;;;;;;13.27;12.07;;;8.80;97.20;;;;;;1714433;28;20237;-72
2022/04/28 05:20:09;;;;;;;13.15;11.90;;;8.90;97.20;;;;;;1714597;28;20584;-71
2022/04/28 05:21:01;;;;;;;13.38;12.07;;;8.90;97.20;;;;;;1714572;28;20194;-72
2022/04/28 05:21:52;;;;;;;13.40;12.20;;;8.90;97.20;;;;;;1714577;28;20495;-71
2022/04/28 05:22:44;;;;;;;13.27;12.02;;;8.90;97.20;;;;;;1714595;28;20193;-71
2022/04/28 05:23:35;;;;;;;13.70;12.40;;;9.00;97.20;;;;;;1714535;28;20229;-71
2022/04/28 05:24:26;;;;;;;13.37;12.20;;;9.00;97.20;;;;;;1714545;28;20208;-71
2022/04/28 05:25:17;;;;;;;13.52;12.23;;;9.00;97.20;;;;;;1714469;28;20239;-72
2022/04/28 05:26:09;;;;;;;14.30;13.00;;;9.10;97.20;;;;;;1714626;28;20657;-71
2022/04/28 05:26:59;;;;;;;14.02;12.70;;;9.10;97.20;;;;;;1714610;28;20449;-71
2022/04/28 05:27:51;;;;;;;14.07;12.57;;;9.20;97.20;;;;;;1714608;28;20198;-71
2022/04/28 05:28:42;;;;;;;15.73;14.07;;;9.20;97.20;;;;;;1714259;28;20217;-71
2022/04/28 05:29:34;;;;;;;16.30;14.60;;;9.30;97.20;;;;;;1714414;28;20210;-71
2022/04/28 05:30:25;;;;;;;15.30;13.93;;;9.30;97.20;;;;;;1714736;28;20193;-71
2022/04/28 05:31:18;;;;;;;13.82;12.63;;;9.30;97.20;;;;;;1714603;28;20202;-71
2022/04/28 05:32:08;;;;;;;13.25;12.10;;;9.30;97.20;;;;;;1714517;28;20300;-71
2022/04/28 05:33:00;;;;;;;14.60;13.20;;;9.40;97.20;;;;;;1714495;28;20206;-71
2022/04/28 05:33:51;;;;;;;15.20;13.73;;;9.40;97.20;;;;;;1714577;28;20202;-71
2022/04/28 05:34:42;;;;;;;13.60;12.30;;;9.50;97.20;;;;;;1714448;28;20230;-71
2022/04/28 05:35:37;;;;;;;16.52;13.65;;;9.50;97.20;;;;;;1714541;28;20743;-71
2022/04/28 05:36:29;;;;;;;15.80;13.60;;;9.50;97.20;;;;;;1714566;28;20197;-71
2022/04/28 05:37:21;;;;;;;14.98;13.57;;;9.60;97.20;;;;;;1714562;28;20201;-71
2022/04/28 05:38:12;;;;;;;16.10;14.52;;;9.60;97.20;;;;;;1714212;28;20574;-72
2022/04/28 05:39:03;;;;;;;14.00;12.77;;;9.70;97.20;;;;;;1714444;28;20206;-71
2022/04/28 05:39:55;;;;;;;17.53;14.00;;;9.70;97.20;;;;;;1714407;28;20205;-71
2022/04/28 05:40:46;;;;;;;14.40;13.00;;;9.70;97.20;;;;;;1714490;28;21123;-71
2022/04/28 05:41:38;;;;;;;15.43;13.68;;;9.70;97.20;;;;;;1714415;28;20289;-71
2022/04/28 05:45:55;;;;;;;15.88;13.73;;;9.90;97.20;;;;;;1721089;28;20244;-71
2022/04/28 05:46:47;;;;;;;15.80;14.27;;;9.90;97.20;;;;;;1721151;28;20240;-71
2022/04/28 05:47:39;;;;;;;15.52;14.10;;;9.90;97.20;;;;;;1721100;28;20209;-72
2022/04/28 05:48:34;;;;;;;14.90;13.50;;;9.90;97.20;;;;;;1720744;28;20266;-71
2022/04/28 05:49:25;;;;;;;14.70;12.88;;;10.00;97.20;;;;;;1720984;28;20197;-71
2022/04/28 05:50:16;;;;;;;14.90;13.50;;;10.00;97.20;;;;;;1721120;28;20247;-71
2022/04/28 05:51:08;;;;;;;16.07;13.67;;;10.00;97.20;;;;;;1721062;28;20215;-71
2022/04/28 05:51:59;;;;;;;14.27;12.88;;;10.10;97.20;;;;;;1721241;28;20201;-71
2022/04/28 05:52:50;;;;;;;13.70;12.40;;;10.10;97.20;;;;;;1721065;28;20208;-71
2022/04/28 05:53:42;;;;;;;14.70;13.20;;;10.10;97.20;;;;;;1721122;28;20475;-71
2022/04/28 05:54:35;;;;;;;14.05;12.57;;;10.20;97.20;;;;;;1721024;28;20241;-71
2022/04/28 05:55:27;;;;;;;14.60;13.10;;;10.20;97.20;;;;;;1721048;28;20201;-71
2022/04/28 05:56:19;;;;;;;15.25;13.75;;;10.20;97.20;;;;;;1721084;28;20205;-71
2022/04/28 05:57:11;;;;;;;15.68;13.65;;;10.30;97.20;;;;;;1721000;28;20212;-71
2022/04/28 05:58:03;;;;;;;14.50;13.10;;;10.30;97.20;;;;;;1720741;28;20214;-70
2022/04/28 05:58:55;;;;;;;15.32;13.55;;;10.30;97.20;;;;;;1718226;28;20197;-71
2022/04/28 05:59:47;;;;;;;14.90;13.30;;;10.30;97.20;;;;;;1707529;28;20258;-71
2022/04/28 06:00:38;;;;;;;16.95;14.60;;;10.40;97.20;;;;;;1707684;28;20199;-71
2022/04/28 06:01:30;;;;;;;16.63;14.90;;;10.40;97.20;;;;;;1707588;28;20470;-71
2022/04/28 06:02:22;;;;;;;15.45;13.85;;;10.40;97.20;;;;;;1707590;28;20206;-71
2022/04/28 06:03:13;;;;;;;14.65;13.25;;;10.50;97.20;;;;;;1707753;28;20225;-71
2022/04/28 06:04:05;;;;;;;14.25;12.88;;;10.50;97.20;;;;;;1707709;28;20206;-71
2022/04/28 06:04:56;;;;;;;14.77;13.35;;;10.50;97.20;;;;;;1707525;28;20706;-71
2022/04/28 06:05:47;;;;;;;14.65;13.15;;;10.60;97.20;;;;;;1707515;28;20257;-71
2022/04/28 06:06:39;;;;;;;14.23;12.83;;;10.60;97.20;;;;;;1707659;28;20201;-71
2022/04/28 06:07:30;;;;;;;14.73;13.23;;;10.70;97.20;;;;;;1707625;28;20210;-71
2022/04/28 06:08:22;;;;;;;14.50;13.10;;;10.70;97.20;;;;;;1707309;28;20669;-71
2022/04/28 06:09:13;;;;;;;14.25;12.85;;;10.70;97.20;;;;;;1707596;28;20677;-70
2022/04/28 06:10:05;;;;;;;14.37;12.97;;;10.70;97.20;;;;;;1707659;28;20658;-71
2022/04/28 06:10:57;;;;;;;12.70;11.50;;;10.80;97.20;;;;;;1707684;28;20238;-71
2022/04/28 06:11:48;;;;;;;16.38;13.48;;;10.80;97.20;;;;;;1707629;28;20202;-71
2022/04/28 06:12:39;;;;;;;13.88;12.55;;;10.80;97.20;;;;;;1707628;28;20248;-71
2022/04/28 06:13:31;;;;;;;13.73;11.93;;;10.90;97.20;;;;;;1707681;28;20198;-71
2022/04/28 06:14:22;;;;;;;12.95;11.65;;;10.90;97.20;;;;;;1707443;28;20574;-71
2022/04/28 06:15:14;;;;;;;13.50;12.20;;;10.90;97.20;;;;;;1711302;28;20556;-71
2022/04/28 06:16:06;;;;;;;13.18;11.88;;;11.00;97.20;;;;;;1714151;28;20206;-71
2022/04/28 06:16:57;;;;;;;15.43;13.30;;;11.00;97.20;;;;;;1714267;28;20213;-71
2022/04/28 06:17:49;;;;;;;12.80;11.43;;;11.00;97.20;;;;;;1714266;28;20206;-71
2022/04/28 06:18:41;;;;;;;14.98;11.82;;;11.00;97.20;;;;;;1713875;28;20206;-71
2022/04/28 06:19:32;;;;;;;17.83;12.75;;;11.10;97.20;;;;;;1714235;28;20230;-71
2022/04/28 06:20:23;;;;;;;13.73;12.07;;;11.10;97.20;;;;;;1714205;28;20212;-70
2022/04/28 06:21:14;;;;;;;13.40;12.20;;;11.10;97.20;;;;;;1714251;28;20205;-71
2022/04/28 06:22:06;;;;;;;13.20;11.80;;;11.20;97.20;;;;;;1714209;28;20204;-70
2022/04/28 06:22:57;;;;;;;12.82;11.55;;;11.20;97.20;;;;;;1714180;28;20209;-71
2022/04/28 06:23:48;;;;;;;12.47;11.37;;;11.20;97.20;;;;;;1714241;28;20211;-71
2022/04/28 06:24:39;;;;;;;13.55;11.77;;;11.20;97.20;;;;;;1714067;28;20480;-70
2022/04/28 06:25:32;;;;;;;12.10;11.00;;;11.30;97.20;;;;;;1714315;28;20206;-71
2022/04/28 06:26:23;;;;;;;12.32;11.23;;;11.30;97.20;;;;;;1714109;28;20198;-71
2022/04/28 06:27:14;;;;;;;12.43;11.23;;;11.30;97.20;;;;;;1714189;28;20244;-71
2022/04/28 06:28:06;;;;;;;13.20;11.80;;;11.30;97.20;;;;;;1713788;28;20209;-71
2022/04/28 06:28:57;;;;;;;15.15;12.60;;;11.40;97.20;;;;;;1714158;28;20214;-71
2022/04/28 06:29:50;;;;;;;13.40;12.20;;;11.40;97.20;;;;;;1714117;28;20708;-71
2022/04/28 06:30:41;;;;;;;15.07;13.32;;;11.40;97.20;;;;;;1714092;28;20214;-71
2022/04/28 06:31:32;;;;;;;15.18;13.55;;;11.40;97.20;;;;;;1714128;28;20237;-71
2022/04/28 06:32:24;;;;;;;14.03;12.60;;;11.40;97.20;;;;;;1715284;28;20190;-71
2022/04/28 06:33:18;;;;;;;16.33;13.65;;;11.40;97.20;;;;;;1714202;28;20209;-71
2022/04/28 06:34:09;;;;;;;14.32;12.70;;;11.50;97.20;;;;;;1714120;28;20628;-71
2022/04/28 06:35:01;;;;;;;15.07;13.57;;;11.50;97.20;;;;;;1713998;28;20284;-71
2022/04/28 06:35:52;;;;;;;13.68;12.45;;;11.50;97.20;;;;;;1714128;28;20206;-71
2022/04/28 06:36:44;;;;;;;13.07;11.77;;;11.50;97.20;;;;;;1714104;28;20209;-71
2022/04/28 06:37:34;;;;;;;13.20;12.00;;;11.50;97.20;;;;;;1714087;28;20205;-71
2022/04/28 06:38:27;;;;;;;12.97;11.87;;;11.50;97.20;;;;;;1713897;28;20220;-71
2022/04/28 06:39:18;;;;;;;12.40;11.30;;;11.60;97.20;;;;;;1714004;28;20210;-71
2022/04/28 06:40:12;;;;;;;12.57;11.27;;;11.60;97.20;;;;;;1714180;28;20256;-70
2022/04/28 06:41:02;;;;;;;13.98;12.77;;;11.60;97.20;;;;;;1714114;28;20559;-70
2022/04/28 06:41:54;;;;;;;13.17;11.97;;;11.60;97.20;;;;;;1714090;28;20304;-70
2022/04/28 06:42:50;;;;;;;14.32;12.52;;;11.70;97.20;;;;;;1714015;28;20236;-70
2022/04/28 06:43:40;;;;;;;13.40;12.00;;;11.70;97.20;;;;;;1714148;28;20209;-70
2022/04/28 06:44:32;;;;;;;13.10;11.90;;;11.70;97.20;;;;;;1713769;28;20202;-71
2022/04/28 06:45:24;;;;;;;14.43;11.75;;;11.80;97.20;;;;;;1714092;28;20210;-71
2022/04/28 06:46:15;;;;;;;12.52;10.77;;;11.80;97.20;;;;;;1713986;28;20218;-70
2022/04/28 06:47:07;;;;;;;12.80;11.20;;;11.80;97.20;;;;;;1714140;28;20204;-71
2022/04/28 06:47:58;;;;;;;12.25;11.15;;;11.90;97.20;;;;;;1713978;28;20300;-71
2022/04/28 06:48:51;;;;;;;12.60;11.40;;;11.90;97.20;;;;;;1714838;28;20213;-70
2022/04/28 06:49:41;;;;;;;12.25;11.05;;;12.00;97.20;;;;;;1713921;28;20572;-71
2022/04/28 06:50:33;;;;;;;12.80;11.70;;;12.00;97.20;;;;;;1714089;28;20306;-71
2022/04/28 06:51:24;;;;;;;12.02;10.90;;;12.10;97.20;;;;;;1714062;28;20206;-70
2022/04/28 06:52:16;;;;;;;10.37;9.37;;;12.10;97.20;;;;;;1714022;28;20228;-70
2022/04/28 06:53:06;;;;;;;10.98;9.90;;;12.20;97.20;;;;;;1714093;28;20481;-70
2022/04/28 06:54:00;;;;;;;10.80;9.80;;;12.20;97.20;;;;;;1714086;28;20209;-70
2022/04/28 06:54:50;;;;;;;9.48;8.68;;;12.20;97.20;;;;;;1714007;28;20232;-71
2022/04/28 06:55:42;;;;;;;11.37;10.13;;;12.30;97.20;;;;;;1713949;28;20222;-71
2022/04/28 06:56:33;;;;;;;10.57;9.60;;;12.30;97.20;;;;;;1714037;28;20752;-71
2022/04/28 06:57:24;;;;;;;11.13;9.77;;;12.40;97.20;;;;;;1714024;28;20224;-71
2022/04/28 06:58:15;;;;;;;10.32;9.43;;;12.40;97.20;;;;;;1713588;28;20213;-71
2022/04/28 06:59:07;;;;;;;10.90;9.03;;;12.50;97.20;;;;;;1713992;28;20213;-71
2022/04/28 06:59:57;;;;;;;10.82;9.60;;;12.50;97.20;;;;;;1713349;28;20699;-71
2022/04/28 07:00:50;;;;;;;10.87;9.17;;;12.50;97.20;;;;;;1714015;28;20577;-71
2022/04/28 07:01:40;;;;;;;9.98;8.98;;;12.60;97.20;;;;;;1713942;28;20649;-71
2022/04/28 07:02:32;;;;;;;9.83;9.03;;;12.60;97.20;;;;;;1713970;28;20613;-70
2022/04/28 07:03:23;;;;;;;10.85;9.85;;;12.60;97.20;;;;;;1714025;28;20213;-70
2022/04/28 07:04:16;;;;;;;10.30;9.23;;;12.70;97.20;;;;;;1713902;28;20204;-70
2022/04/28 07:05:07;;;;;;;10.27;9.18;;;12.70;97.20;;;;;;1714009;28;20206;-70
2022/04/28 07:05:59;;;;;;;10.65;9.52;;;12.70;97.20;;;;;;1719406;28;20255;-71
2022/04/28 07:06:51;;;;;;;11.68;8.90;;;12.80;97.20;;;;;;1720605;28;20205;-70
2022/04/28 07:07:41;;;;;;;11.20;10.13;;;12.80;97.20;;;;;;1716735;28;20630;-71
2022/04/28 07:08:33;;;;;;;9.60;8.73;;;12.80;97.20;;;;;;1716270;28;20614;-70
2022/04/28 07:09:24;;;;;;;9.73;8.90;;;12.90;97.20;;;;;;1713874;28;20266;-70
2022/04/28 07:10:15;;;;;;;11.47;9.37;;;12.90;97.20;;;;;;1713941;28;20202;-70
2022/04/28 07:11:06;;;;;;;12.30;10.93;;;12.90;97.20;;;;;;1713988;28;20241;-70
2022/04/28 07:11:58;;;;;;;10.38;9.30;;;13.00;97.20;;;;;;1713987;28;20197;-70
2022/04/28 07:12:50;;;;;;;9.43;8.63;;;13.00;97.20;;;;;;1713488;28;20263;-70
2022/04/28 07:13:40;;;;;;;10.85;8.85;;;13.00;97.20;;;;;;1713234;28;20724;-70
2022/04/28 07:14:33;;;;;;;10.17;9.27;;;13.00;97.20;;;;;;1713809;28;20631;-70
2022/04/28 07:15:24;;;;;;;8.13;7.43;;;13.10;97.20;;;;;;1714075;28;20240;-70
2022/04/28 07:16:16;;;;;;;9.57;8.67;;;13.10;97.20;;;;;;1713929;28;20202;-71
2022/04/28 07:17:07;;;;;;;8.68;7.88;;;13.10;97.20;;;;;;1714029;28;20230;-70
2022/04/28 07:17:58;;;;;;;8.97;8.20;;;13.20;97.20;;;;;;1713991;28;20221;-70
2022/04/28 07:18:49;;;;;;;10.38;8.57;;;13.20;97.20;;;;;;1713620;28;20236;-71
2022/04/28 07:19:42;;;;;;;12.93;9.17;;;13.30;97.20;;;;;;1713874;28;20208;-69
2022/04/28 07:20:33;;;;;;;8.98;8.18;;;13.30;97.20;;;;;;1713854;28;20272;-71
2022/04/28 07:21:25;;;;;;;9.20;8.10;;;13.30;97.20;;;;;;1713891;28;20613;-71
2022/04/28 07:22:16;;;;;;;11.90;8.60;;;13.40;97.20;;;;;;1713918;28;20212;-71
2022/04/28 07:23:07;;;;;;;9.00;8.20;;;13.40;97.20;;;;;;1713511;28;20209;-71
2022/04/28 07:23:58;;;;;;;9.18;8.38;;;13.50;97.20;;;;;;1713880;28;20234;-70
2022/04/28 07:24:50;;;;;;;9.30;8.10;;;13.50;97.20;;;;;;1713432;28;20704;-70
2022/04/28 07:25:41;;;;;;;9.52;8.73;;;13.50;97.20;;;;;;1713845;28;20285;-70
2022/04/28 07:26:32;;;;;;;9.33;8.47;;;13.60;97.20;;;;;;1713371;28;20257;-70
2022/04/28 07:27:23;;;;;;;9.90;9.00;;;13.60;97.20;;;;;;1713925;28;20212;-70
2022/04/28 07:28:15;;;;;;;8.70;8.00;;;13.70;97.20;;;;;;1713605;28;20208;-70
2022/04/28 07:29:06;;;;;;;8.35;7.63;;;13.70;97.20;;;;;;1713874;28;20445;-71
2022/04/28 07:29:57;;;;;;;8.30;7.60;;;13.70;97.20;;;;;;1713957;28;20205;-71
2022/04/28 07:30:48;;;;;;;8.80;7.95;;;13.70;97.20;;;;;;1713882;28;20256;-70
2022/04/28 07:31:40;;;;;;;8.87;8.00;;;13.70;97.20;;;;;;1713799;28;20220;-71
2022/04/28 07:32:32;;;;;;;9.45;8.27;;;13.80;97.20;;;;;;1718449;28;20309;-71
2022/04/28 07:33:24;;;;;;;11.02;8.27;;;13.80;97.20;;;;;;1720247;28;20220;-71
2022/04/28 07:34:15;;;;;;;9.48;8.57;;;13.90;97.20;;;;;;1720054;28;20648;-71
2022/04/28 07:35:08;;;;;;;9.67;8.67;;;13.90;97.20;;;;;;1715208;28;20221;-71
2022/04/28 07:35:59;;;;;;;9.23;8.32;;;14.00;97.20;;;;;;1710384;28;20876;-70
2022/04/28 07:36:51;;;;;;;8.50;7.70;;;14.00;97.20;;;;;;1712138;28;20750;-71
2022/04/28 07:37:41;;;;;;;9.45;8.52;;;14.10;97.20;;;;;;1710572;28;20260;-70
2022/04/28 07:38:33;;;;;;;10.33;8.40;;;14.10;97.20;;;;;;1712913;28;20193;-71
2022/04/28 07:39:24;;;;;;;9.02;7.85;;;14.20;97.20;;;;;;1717804;28;20198;-71
2022/04/28 07:40:17;;;;;;;8.30;7.60;;;14.20;97.20;;;;;;1718226;28;20268;-71
2022/04/28 07:41:08;;;;;;;10.80;8.10;;;14.20;97.20;;;;;;1720420;28;20573;-71
2022/04/28 07:41:59;;;;;;;9.03;8.00;;;14.30;97.20;;;;;;1718940;28;20642;-71
2022/04/28 07:42:50;;;;;;;8.40;7.68;;;14.30;97.20;;;;;;1713813;28;21128;-71
2022/04/28 07:43:42;;;;;;;9.10;8.30;;;14.40;97.20;;;;;;1719118;28;20528;-71
2022/04/28 07:44:34;;;;;;;8.25;7.55;;;14.40;97.20;;;;;;1720422;28;20487;-71
2022/04/28 07:45:26;;;;;;;8.23;7.55;;;14.40;97.20;;;;;;1719837;28;20249;-71
2022/04/28 07:46:17;;;;;;;9.70;7.82;;;14.40;97.20;;;;;;1720322;28;20216;-71
2022/04/28 07:47:09;;;;;;;11.63;8.50;;;14.50;97.20;;;;;;1720390;28;20209;-72
2022/04/28 07:48:00;;;;;;;11.80;8.02;;;14.50;97.20;;;;;;1720357;28;20232;-71
2022/04/28 07:48:52;;;;;;;7.47;6.78;;;14.60;97.20;;;;;;1720295;28;20193;-71
2022/04/28 07:49:43;;;;;;;7.75;7.05;;;14.70;97.20;;;;;;1720216;28;20316;-71
2022/04/28 07:50:36;;;;;;;8.23;7.43;;;14.70;97.20;;;;;;1719989;28;20230;-71
2022/04/28 07:51:27;;;;;;;7.60;6.90;;;14.80;97.20;;;;;;1720217;28;20476;-71
2022/04/28 07:52:18;;;;;;;8.30;7.50;;;14.80;97.20;;;;;;1720301;28;20211;-71
2022/04/28 07:53:09;;;;;;;7.60;6.90;;;14.90;97.20;;;;;;1720429;28;20671;-71
2022/04/28 07:54:02;;;;;;;7.50;6.80;;;14.90;97.20;;;;;;1720331;28;20551;-71
2022/04/28 07:54:53;;;;;;;6.80;6.18;;;15.00;97.20;;;;;;1719838;28;20239;-71
2022/04/28 07:56:10;;;;;;;8.00;7.20;;;15.00;97.20;;;;;;1719768;28;20200;-71
2022/04/28 07:56:56;;;;;;;8.32;6.70;;;15.00;97.20;;;;;;1719561;28;20269;-71
2022/04/28 07:57:47;;;;;;;7.20;6.60;;;15.10;97.20;;;;;;1719769;28;20237;-71
2022/04/28 07:58:38;;;;;;;6.80;6.20;;;15.10;97.20;;;;;;1720035;28;20245;-71
2022/04/28 07:59:30;;;;;;;11.60;7.77;;;15.10;97.20;;;;;;1719073;28;20205;-70
2022/04/28 08:00:20;;;;;;;7.53;6.85;;;15.20;97.20;;;;;;1713581;28;20998;-71
2022/04/28 08:01:13;;;;;;;7.40;6.60;;;15.20;97.20;;;;;;1713792;28;20621;-71
2022/04/28 08:02:04;;;;;;;7.25;6.50;;;15.30;97.20;;;;;;1713652;28;20205;-71
2022/04/28 08:02:56;;;;;;;8.13;6.38;;;15.30;97.20;;;;;;1713703;28;20221;-71
2022/04/28 08:03:47;;;;;;;7.22;6.53;;;15.40;97.20;;;;;;1713598;28;20209;-71
2022/04/28 08:04:38;;;;;;;6.85;6.20;;;15.40;97.20;;;;;;1713622;28;20268;-71
2022/04/28 08:05:30;;;;;;;7.23;6.53;;;15.50;97.20;;;;;;1713642;28;20201;-71
2022/04/28 08:06:23;;;;;;;8.50;7.45;;;15.60;97.20;;;;;;1713641;28;20645;-71
2022/04/28 08:07:14;;;;;;;7.50;6.85;;;15.60;97.20;;;;;;1713692;28;20237;-71
2022/04/28 08:08:06;;;;;;;6.73;6.10;;;15.70;97.20;;;;;;1713287;28;20205;-71
2022/04/28 08:08:58;;;;;;;9.30;7.25;;;15.70;97.20;;;;;;1713687;28;20206;-71
2022/04/28 08:09:49;;;;;;;7.50;6.30;;;15.80;97.20;;;;;;1713587;28;20236;-71
2022/04/28 08:10:40;;;;;;;8.87;6.90;;;15.80;97.20;;;;;;1713511;28;20201;-71
2022/04/28 08:11:32;;;;;;;7.95;7.22;;;15.90;97.20;;;;;;1713658;28;20206;-71
2022/04/28 08:12:24;;;;;;;7.65;6.88;;;15.90;97.20;;;;;;1713659;28;20217;-71
2022/04/28 08:13:15;;;;;;;7.25;6.50;;;16.00;97.20;;;;;;1713668;28;20262;-71
2022/04/28 08:14:06;;;;;;;8.20;5.90;;;16.10;97.20;;;;;;1713907;28;20206;-71
2022/04/28 08:14:57;;;;;;;7.00;6.03;;;16.10;97.20;;;;;;1713600;28;20288;-71
2022/04/28 08:15:49;;;;;;;6.67;6.17;;;16.20;97.20;;;;;;1714297;28;20202;-71
2022/04/28 08:16:40;;;;;;;7.00;6.30;;;16.20;97.20;;;;;;1720388;28;20292;-71
2022/04/28 08:17:31;;;;;;;6.80;6.20;;;16.30;97.20;;;;;;1720472;28;20201;-71
2022/04/28 08:18:22;;;;;;;6.80;6.20;;;16.30;97.20;;;;;;1719953;28;20947;-71
2022/04/28 08:19:14;;;;;;;7.07;6.37;;;16.40;97.20;;;;;;1720310;28;20672;-70
2022/04/28 08:20:06;;;;;;;6.65;6.05;;;16.40;97.20;;;;;;1720314;28;20231;-71
2022/04/28 08:20:58;;;;;;;8.15;6.15;;;16.50;97.20;;;;;;1720270;28;20197;-71
2022/04/28 08:21:50;;;;;;;6.18;5.57;;;16.60;97.20;;;;;;1720343;28;20213;-71
2022/04/28 08:22:42;;;;;;;6.53;5.97;;;16.60;97.20;;;;;;1720416;28;20217;-71
2022/04/28 08:23:32;;;;;;;9.55;5.95;;;16.70;97.20;;;;;;1720391;28;20201;-71
2022/04/28 08:24:24;;;;;;;8.93;6.10;;;16.70;97.20;;;;;;1715455;28;20194;-71
2022/04/28 08:25:15;;;;;;;6.82;5.68;;;16.80;97.20;;;;;;1714580;28;20260;-71
2022/04/28 08:26:07;;;;;;;6.23;5.73;;;16.80;97.20;;;;;;1714740;28;20264;-70
2022/04/28 08:26:58;;;;;;;6.60;6.00;;;16.90;97.20;;;;;;1714683;28;20262;-71
2022/04/28 08:27:50;;;;;;;6.67;6.17;;;16.90;97.20;;;;;;1716031;28;20205;-70
2022/04/28 08:28:41;;;;;;;7.80;6.43;;;17.00;97.20;;;;;;1720989;28;20235;-70
2022/04/28 08:29:32;;;;;;;6.20;5.70;;;17.00;97.20;;;;;;1714878;28;20209;-71
2022/04/28 08:30:23;;;;;;;9.27;6.80;;;17.10;97.20;;;;;;1720261;28;20193;-72
2022/04/28 08:31:15;;;;;;;6.50;5.80;;;17.20;97.20;;;;;;1721355;28;20212;-71
2022/04/28 08:32:07;;;;;;;6.82;6.22;;;17.20;97.20;;;;;;1721509;28;21130;-71
2022/04/28 08:33:00;;;;;;;7.10;5.35;;;17.30;97.20;;;;;;1721392;28;20209;-70
2022/04/28 08:33:52;;;;;;;7.63;5.75;;;17.30;97.20;;;;;;1721546;28;20728;-70
2022/04/28 08:34:43;;;;;;;7.60;6.25;;;17.40;97.20;;;;;;1721298;28;20221;-71
2022/04/28 08:35:34;;;;;;;6.20;5.57;;;17.50;97.20;;;;;;1721463;28;20598;-71
2022/04/28 08:36:26;;;;;;;12.80;6.20;;;17.50;97.20;;;;;;1721473;28;20275;-71
2022/04/28 08:37:18;;;;;;;6.78;6.18;;;17.50;97.20;;;;;;1720815;28;20448;-70
2022/04/28 08:38:10;;;;;;;6.43;5.80;;;17.60;97.20;;;;;;1713751;28;20217;-71
2022/04/28 08:39:01;;;;;;;6.50;6.00;;;17.60;97.20;;;;;;1721181;28;20237;-71
2022/04/28 08:39:52;;;;;;;7.00;6.00;;;17.70;97.20;;;;;;1721387;28;20207;-71
2022/04/28 08:40:46;;;;;;;5.88;5.40;;;17.70;97.20;;;;;;1721388;28;20198;-71
2022/04/28 08:41:42;;;;;;;7.13;6.32;;;17.80;97.20;;;;;;1721332;28;20201;-71
2022/04/28 08:42:36;;;;;;;7.38;5.70;;;17.90;97.20;;;;;;1721529;28;20189;-71
2022/04/28 08:43:29;;;;;;;5.57;5.05;;;18.00;97.20;;;;;;1721178;28;20683;-71
2022/04/28 08:44:21;;;;;;;5.90;5.30;;;18.00;97.20;;;;;;1714432;28;20205;-71
2022/04/28 08:45:18;;;;;;;6.18;5.47;;;18.10;97.20;;;;;;1714379;28;20194;-70
2022/04/28 08:47:20;;;;;;;5.40;4.90;;;18.20;97.20;;;;;;1714503;28;20284;-71
2022/04/28 08:48:11;;;;;;;5.63;4.75;;;18.30;97.20;;;;;;1714309;28;20221;-71
2022/04/28 08:49:03;;;;;;;5.53;5.03;;;18.40;97.20;;;;;;1714527;28;20198;-71
2022/04/28 08:49:54;;;;;;;6.30;5.70;;;18.40;97.20;;;;;;1714569;28;20213;-71
2022/04/28 08:50:46;;;;;;;6.10;5.50;;;18.40;97.20;;;;;;1714534;28;20698;-71
2022/04/28 08:51:38;;;;;;;5.38;4.97;;;18.50;97.20;;;;;;1714938;28;20232;-70
2022/04/28 08:52:32;;;;;;;6.75;6.15;;;18.50;97.20;;;;;;1714552;28;20202;-71
2022/04/28 08:53:23;;;;;;;6.40;5.80;;;18.50;97.20;;;;;;1714570;28;20206;-71
2022/04/28 08:54:15;;;;;;;5.80;5.30;;;18.50;97.20;;;;;;1714488;28;20703;-71
2022/04/28 08:55:07;;;;;;;6.93;5.25;;;18.60;97.20;;;;;;1716799;28;20225;-71
2022/04/28 08:55:59;;;;;;;5.88;5.38;;;18.60;97.20;;;;;;1721302;28;20228;-71
2022/04/28 08:56:51;;;;;;;7.70;5.43;;;18.70;97.20;;;;;;1721327;28;20252;-71
2022/04/28 08:57:44;;;;;;;5.72;5.22;;;18.70;97.20;;;;;;1721123;28;20236;-71
2022/04/28 08:58:35;;;;;;;6.57;5.80;;;18.80;97.20;;;;;;1720921;28;20204;-71
2022/04/28 08:59:26;;;;;;;6.17;5.67;;;18.80;97.20;;;;;;1721367;28;20200;-71
2022/04/28 09:00:17;;;;;;;7.30;5.40;;;18.80;97.20;;;;;;1719328;28;20212;-71
2022/04/28 09:01:09;;;;;;;5.68;5.18;;;18.90;97.20;;;;;;1714571;28;20202;-71
2022/04/28 09:02:01;;;;;;;5.43;4.93;;;19.00;97.20;;;;;;1714557;28;20206;-71
2022/04/28 09:02:52;;;;;;;5.45;4.95;;;19.00;97.20;;;;;;1715150;28;20209;-71
2022/04/28 09:03:44;;;;;;;5.47;4.97;;;19.00;97.20;;;;;;1721173;28;20288;-71
2022/04/28 09:04:36;;;;;;;5.50;5.10;;;19.10;97.20;;;;;;1721323;28;20536;-71
2022/04/28 09:05:31;;;;;;;5.65;5.15;;;19.20;97.20;;;;;;1721279;28;20292;-71
2022/04/28 09:06:25;;;;;;;5.55;4.95;;;19.20;97.20;;;;;;1721237;28;20205;-71
2022/04/28 09:07:17;;;;;;;5.45;5.03;;;19.20;97.20;;;;;;1721076;28;20267;-71
2022/04/28 09:08:09;;;;;;;7.85;5.88;;;19.20;97.20;;;;;;1720954;28;20716;-71
2022/04/28 09:09:01;;;;;;;6.47;5.88;;;19.20;97.20;;;;;;1721176;28;20209;-71
2022/04/28 09:09:53;;;;;;;6.22;5.72;;;19.20;97.20;;;;;;1721089;28;20209;-71
2022/04/28 09:10:44;;;;;;;5.72;5.22;;;19.30;97.20;;;;;;1721154;28;20229;-71
2022/04/28 09:11:37;;;;;;;6.10;5.60;;;19.30;97.20;;;;;;1720641;28;20205;-71
2022/04/28 09:12:28;;;;;;;6.50;5.90;;;19.30;97.20;;;;;;1721158;28;20326;-71
2022/04/28 09:14:30;;;;;;;5.20;4.70;;;19.40;97.20;;;;;;1721148;28;20328;-71
2022/04/28 09:15:22;;;;;;;5.68;5.15;;;19.50;97.20;;;;;;1721179;28;20660;-71
2022/04/28 09:16:14;;;;;;;5.00;4.60;;;19.50;97.20;;;;;;1721285;28;20731;-72
2022/04/28 09:17:06;;;;;;;6.75;6.15;;;19.60;97.20;;;;;;1721188;28;20209;-71
2022/04/28 09:17:57;;;;;;;5.53;5.05;;;19.70;97.20;;;;;;1721152;28;20237;-71
2022/04/28 09:18:49;;;;;;;6.00;5.40;;;19.80;97.20;;;;;;1720864;28;20208;-71
2022/04/28 09:19:40;;;;;;;5.30;4.80;;;19.80;97.20;;;;;;1721052;28;20252;-71
2022/04/28 09:20:32;;;;;;;5.25;4.57;;;19.90;97.20;;;;;;1721222;28;20197;-71
2022/04/28 09:21:22;;;;;;;5.18;4.68;;;19.90;97.20;;;;;;1721030;28;20200;-71
2022/04/28 09:22:14;;;;;;;5.10;4.60;;;20.00;97.20;;;;;;1721191;28;20201;-71
2022/04/28 09:23:05;;;;;;;5.85;5.07;;;20.10;97.20;;;;;;1721269;28;20565;-71
2022/04/28 09:23:58;;;;;;;6.00;5.50;;;20.20;97.20;;;;;;1720961;28;20237;-70
2022/04/28 09:24:59;;;;;;;5.70;5.20;;;20.30;97.20;;;;;;1721072;28;20244;-71
2022/04/28 09:25:52;;;;;;;5.85;5.25;;;20.40;97.20;;;;;;1721306;28;20202;-72
2022/04/28 09:26:44;;;;;;;5.55;5.13;;;20.40;97.20;;;;;;1721101;28;20205;-72
2022/04/28 09:27:35;;;;;;;5.70;5.18;;;20.50;97.20;;;;;;1720983;28;20278;-71
2022/04/28 09:28:26;;;;;;;7.00;6.40;;;20.60;97.20;;;;;;1719848;28;20194;-71
2022/04/28 09:29:19;;;;;;;5.07;4.68;;;20.60;97.20;;;;;;1718280;28;20444;-71
2022/04/28 09:30:12;;;;;;;5.10;4.70;;;20.70;97.20;;;;;;1721236;28;20217;-70
2022/04/28 09:31:03;;;;;;;5.30;4.80;;;20.70;96.70;;;;;;1720967;28;20205;-71
2022/04/28 09:31:55;;;;;;;4.10;3.80;;;20.80;95.60;;;;;;1721104;28;20205;-72